sensor_id;sensor_type;location;lat;lon;timestamp;P1;durP1;ratioP1;P2;durP2;ratioP2
946;SDS011;460;48.734;9.152;2024-02-15T00:01:29;1.27;;;1.17;;
946;SDS011;460;48.734;9.152;2024-02-15T00:03:56;2.03;;;1.33;;
946;SDS011;460;48.734;9.152;2024-02-15T00:06:24;3.03;;;1.80;;
946;SDS011;460;48.734;9.152;2024-02-15T00:08:51;1.63;;;1.53;;
946;SDS011;460;48.734;9.152;2024-02-15T00:11:18;1.80;;;1.70;;
946;SDS011;460;48.734;9.152;2024-02-15T00:13:45;1.03;;;0.93;;
946;SDS011;460;48.734;9.152;2024-02-15T00:16:12;1.50;;;1.40;;
946;SDS011;460;48.734;9.152;2024-02-15T00:18:40;2.17;;;1.90;;
946;SDS011;460;48.734;9.152;2024-02-15T00:21:06;1.87;;;1.77;;
946;SDS011;460;48.734;9.152;2024-02-15T00:23:35;1.57;;;1.47;;
946;SDS011;460;48.734;9.152;2024-02-15T00:26:01;1.23;;;1.17;;
946;SDS011;460;48.734;9.152;2024-02-15T00:28:28;2.13;;;1.60;;
946;SDS011;460;48.734;9.152;2024-02-15T00:30:55;2.00;;;1.50;;
946;SDS011;460;48.734;9.152;2024-02-15T00:33:22;1.70;;;1.40;;
946;SDS011;460;48.734;9.152;2024-02-15T00:35:49;2.27;;;1.47;;
946;SDS011;460;48.734;9.152;2024-02-15T00:38:17;3.70;;;1.70;;
946;SDS011;460;48.734;9.152;2024-02-15T00:40:45;1.43;;;1.10;;
946;SDS011;460;48.734;9.152;2024-02-15T00:43:12;2.43;;;2.03;;
946;SDS011;460;48.734;9.152;2024-02-15T00:45:39;2.70;;;1.53;;
946;SDS011;460;48.734;9.152;2024-02-15T00:48:06;2.97;;;1.80;;
946;SDS011;460;48.734;9.152;2024-02-15T00:50:33;1.50;;;1.40;;
946;SDS011;460;48.734;9.152;2024-02-15T00:53:00;1.40;;;1.30;;
946;SDS011;460;48.734;9.152;2024-02-15T00:55:27;2.10;;;1.50;;
946;SDS011;460;48.734;9.152;2024-02-15T00:57:55;1.97;;;1.63;;
946;SDS011;460;48.734;9.152;2024-02-15T01:00:22;2.33;;;1.60;;
946;SDS011;460;48.734;9.152;2024-02-15T01:02:49;1.80;;;1.70;;
946;SDS011;460;48.734;9.152;2024-02-15T01:05:16;1.47;;;1.37;;
946;SDS011;460;48.734;9.152;2024-02-15T01:07:43;2.10;;;1.90;;
946;SDS011;460;48.734;9.152;2024-02-15T01:10:10;2.27;;;1.93;;
946;SDS011;460;48.734;9.152;2024-02-15T01:12:37;1.90;;;1.70;;
946;SDS011;460;48.734;9.152;2024-02-15T01:15:06;1.90;;;1.80;;
946;SDS011;460;48.734;9.152;2024-02-15T01:17:33;3.53;;;2.43;;
946;SDS011;460;48.734;9.152;2024-02-15T01:20:00;2.77;;;1.70;;
946;SDS011;460;48.734;9.152;2024-02-15T01:22:27;1.90;;;1.80;;
946;SDS011;460;48.734;9.152;2024-02-15T01:24:54;2.33;;;1.80;;
946;SDS011;460;48.734;9.152;2024-02-15T01:27:21;2.43;;;1.80;;
946;SDS011;460;48.734;9.152;2024-02-15T01:29:48;3.13;;;1.90;;
946;SDS011;460;48.734;9.152;2024-02-15T01:32:16;1.80;;;1.70;;
946;SDS011;460;48.734;9.152;2024-02-15T01:34:43;1.90;;;1.70;;
946;SDS011;460;48.734;9.152;2024-02-15T01:37:10;1.43;;;1.33;;
946;SDS011;460;48.734;9.152;2024-02-15T01:39:37;4.67;;;1.77;;
946;SDS011;460;48.734;9.152;2024-02-15T01:42:03;7.83;;;1.73;;
946;SDS011;460;48.734;9.152;2024-02-15T01:44:30;1.63;;;1.50;;
946;SDS011;460;48.734;9.152;2024-02-15T01:46:57;1.60;;;1.50;;
946;SDS011;460;48.734;9.152;2024-02-15T01:49:26;1.60;;;1.43;;
946;SDS011;460;48.734;9.152;2024-02-15T01:51:54;4.87;;;2.10;;
946;SDS011;460;48.734;9.152;2024-02-15T01:54:23;2.37;;;2.07;;
946;SDS011;460;48.734;9.152;2024-02-15T01:56:50;3.37;;;1.93;;
946;SDS011;460;48.734;9.152;2024-02-15T01:59:17;3.37;;;1.80;;
946;SDS011;460;48.734;9.152;2024-02-15T02:01:44;4.97;;;1.97;;
946;SDS011;460;48.734;9.152;2024-02-15T02:04:11;1.40;;;1.30;;
946;SDS011;460;48.734;9.152;2024-02-15T02:06:40;1.83;;;1.50;;
946;SDS011;460;48.734;9.152;2024-02-15T02:09:07;1.60;;;1.50;;
946;SDS011;460;48.734;9.152;2024-02-15T02:11:39;2.07;;;1.93;;
946;SDS011;460;48.734;9.152;2024-02-15T02:14:06;2.00;;;1.27;;
946;SDS011;460;48.734;9.152;2024-02-15T02:16:34;2.27;;;1.73;;
946;SDS011;460;48.734;9.152;2024-02-15T02:19:02;1.77;;;1.17;;
946;SDS011;460;48.734;9.152;2024-02-15T02:21:36;2.20;;;1.43;;
946;SDS011;460;48.734;9.152;2024-02-15T02:24:08;2.50;;;1.60;;
946;SDS011;460;48.734;9.152;2024-02-15T02:26:41;1.83;;;1.67;;
946;SDS011;460;48.734;9.152;2024-02-15T02:29:09;1.87;;;1.70;;
946;SDS011;460;48.734;9.152;2024-02-15T02:31:38;2.00;;;1.73;;
946;SDS011;460;48.734;9.152;2024-02-15T02:34:06;2.57;;;2.00;;
946;SDS011;460;48.734;9.152;2024-02-15T02:36:35;4.27;;;2.07;;
946;SDS011;460;48.734;9.152;2024-02-15T02:39:03;2.50;;;2.30;;
946;SDS011;460;48.734;9.152;2024-02-15T02:41:34;2.20;;;1.83;;
946;SDS011;460;48.734;9.152;2024-02-15T02:44:03;2.13;;;1.67;;
946;SDS011;460;48.734;9.152;2024-02-15T02:46:31;4.43;;;1.93;;
946;SDS011;460;48.734;9.152;2024-02-15T02:48:58;2.17;;;1.97;;
946;SDS011;460;48.734;9.152;2024-02-15T02:51:26;1.90;;;1.80;;
946;SDS011;460;48.734;9.152;2024-02-15T02:53:54;1.80;;;1.70;;
946;SDS011;460;48.734;9.152;2024-02-15T02:56:21;4.13;;;2.07;;
946;SDS011;460;48.734;9.152;2024-02-15T02:58:49;2.63;;;2.43;;
946;SDS011;460;48.734;9.152;2024-02-15T03:01:18;1.57;;;1.47;;
946;SDS011;460;48.734;9.152;2024-02-15T03:03:48;1.97;;;1.77;;
946;SDS011;460;48.734;9.152;2024-02-15T03:06:16;2.60;;;2.40;;
946;SDS011;460;48.734;9.152;2024-02-15T03:08:43;3.93;;;2.37;;
946;SDS011;460;48.734;9.152;2024-02-15T03:11:10;2.87;;;1.43;;
946;SDS011;460;48.734;9.152;2024-02-15T03:13:40;5.33;;;2.20;;
946;SDS011;460;48.734;9.152;2024-02-15T03:16:10;2.07;;;1.80;;
946;SDS011;460;48.734;9.152;2024-02-15T03:18:39;2.10;;;2.00;;
946;SDS011;460;48.734;9.152;2024-02-15T03:21:07;2.07;;;1.83;;
946;SDS011;460;48.734;9.152;2024-02-15T03:23:35;2.20;;;1.90;;
946;SDS011;460;48.734;9.152;2024-02-15T03:26:07;1.87;;;1.67;;
946;SDS011;460;48.734;9.152;2024-02-15T03:28:34;2.10;;;1.47;;
946;SDS011;460;48.734;9.152;2024-02-15T03:31:02;2.33;;;1.90;;
946;SDS011;460;48.734;9.152;2024-02-15T03:33:30;2.50;;;1.83;;
946;SDS011;460;48.734;9.152;2024-02-15T03:36:02;2.37;;;1.87;;
946;SDS011;460;48.734;9.152;2024-02-15T03:38:30;4.27;;;1.70;;
946;SDS011;460;48.734;9.152;2024-02-15T03:40:58;1.73;;;1.60;;
946;SDS011;460;48.734;9.152;2024-02-15T03:43:25;3.47;;;2.40;;
946;SDS011;460;48.734;9.152;2024-02-15T03:45:52;2.00;;;1.80;;
946;SDS011;460;48.734;9.152;2024-02-15T03:48:19;2.03;;;1.80;;
946;SDS011;460;48.734;9.152;2024-02-15T03:50:46;3.20;;;2.07;;
946;SDS011;460;48.734;9.152;2024-02-15T03:53:15;1.83;;;1.73;;
946;SDS011;460;48.734;9.152;2024-02-15T03:55:42;3.20;;;1.67;;
946;SDS011;460;48.734;9.152;2024-02-15T03:58:09;2.20;;;2.00;;
946;SDS011;460;48.734;9.152;2024-02-15T04:00:37;1.93;;;1.83;;
946;SDS011;460;48.734;9.152;2024-02-15T04:03:05;3.63;;;2.17;;
946;SDS011;460;48.734;9.152;2024-02-15T04:05:32;3.03;;;2.07;;
946;SDS011;460;48.734;9.152;2024-02-15T04:07:59;2.27;;;1.67;;
946;SDS011;460;48.734;9.152;2024-02-15T04:10:29;5.10;;;1.93;;
946;SDS011;460;48.734;9.152;2024-02-15T04:12:56;1.83;;;1.67;;
946;SDS011;460;48.734;9.152;2024-02-15T04:15:24;2.10;;;1.50;;
946;SDS011;460;48.734;9.152;2024-02-15T04:17:51;1.90;;;1.60;;
946;SDS011;460;48.734;9.152;2024-02-15T04:20:21;4.37;;;2.40;;
946;SDS011;460;48.734;9.152;2024-02-15T04:22:48;2.57;;;2.10;;
946;SDS011;460;48.734;9.152;2024-02-15T04:25:15;2.10;;;1.83;;
946;SDS011;460;48.734;9.152;2024-02-15T04:27:45;3.93;;;2.30;;
946;SDS011;460;48.734;9.152;2024-02-15T04:30:12;2.40;;;2.20;;
946;SDS011;460;48.734;9.152;2024-02-15T04:32:40;3.03;;;1.83;;
946;SDS011;460;48.734;9.152;2024-02-15T04:35:07;5.10;;;2.13;;
946;SDS011;460;48.734;9.152;2024-02-15T04:37:35;4.13;;;2.73;;
946;SDS011;460;48.734;9.152;2024-02-15T04:40:02;3.60;;;1.93;;
946;SDS011;460;48.734;9.152;2024-02-15T04:42:33;2.37;;;2.27;;
946;SDS011;460;48.734;9.152;2024-02-15T04:45:04;3.93;;;3.73;;
946;SDS011;460;48.734;9.152;2024-02-15T04:47:33;3.37;;;2.77;;
946;SDS011;460;48.734;9.152;2024-02-15T04:50:00;2.17;;;1.97;;
946;SDS011;460;48.734;9.152;2024-02-15T04:52:28;2.70;;;2.50;;
946;SDS011;460;48.734;9.152;2024-02-15T04:54:56;2.67;;;2.50;;
946;SDS011;460;48.734;9.152;2024-02-15T04:57:23;2.83;;;2.63;;
946;SDS011;460;48.734;9.152;2024-02-15T04:59:53;3.37;;;3.07;;
946;SDS011;460;48.734;9.152;2024-02-15T05:02:21;3.10;;;2.90;;
946;SDS011;460;48.734;9.152;2024-02-15T05:04:49;2.60;;;2.40;;
946;SDS011;460;48.734;9.152;2024-02-15T05:07:20;2.40;;;2.20;;
946;SDS011;460;48.734;9.152;2024-02-15T05:09:47;2.90;;;2.60;;
946;SDS011;460;48.734;9.152;2024-02-15T05:12:21;8.73;;;3.03;;
946;SDS011;460;48.734;9.152;2024-02-15T05:14:49;2.47;;;2.27;;
946;SDS011;460;48.734;9.152;2024-02-15T05:17:18;2.80;;;2.53;;
946;SDS011;460;48.734;9.152;2024-02-15T05:19:48;2.60;;;2.40;;
946;SDS011;460;48.734;9.152;2024-02-15T05:22:15;2.63;;;2.43;;
946;SDS011;460;48.734;9.152;2024-02-15T05:24:43;1.93;;;1.73;;
946;SDS011;460;48.734;9.152;2024-02-15T05:27:10;1.93;;;1.83;;
946;SDS011;460;48.734;9.152;2024-02-15T05:29:37;3.50;;;2.50;;
946;SDS011;460;48.734;9.152;2024-02-15T05:32:06;2.20;;;1.90;;
946;SDS011;460;48.734;9.152;2024-02-15T05:34:34;2.43;;;1.67;;
946;SDS011;460;48.734;9.152;2024-02-15T05:37:06;2.43;;;1.60;;
946;SDS011;460;48.734;9.152;2024-02-15T05:39:33;1.80;;;1.70;;
946;SDS011;460;48.734;9.152;2024-02-15T05:42:00;2.27;;;2.17;;
946;SDS011;460;48.734;9.152;2024-02-15T05:44:27;3.63;;;1.83;;
946;SDS011;460;48.734;9.152;2024-02-15T05:46:54;2.63;;;2.13;;
946;SDS011;460;48.734;9.152;2024-02-15T05:49:21;2.27;;;2.17;;
946;SDS011;460;48.734;9.152;2024-02-15T05:51:49;2.40;;;2.20;;
946;SDS011;460;48.734;9.152;2024-02-15T05:54:19;2.40;;;2.20;;
946;SDS011;460;48.734;9.152;2024-02-15T05:56:47;2.20;;;2.00;;
946;SDS011;460;48.734;9.152;2024-02-15T05:59:17;2.30;;;1.77;;
946;SDS011;460;48.734;9.152;2024-02-15T06:01:45;5.40;;;1.90;;
946;SDS011;460;48.734;9.152;2024-02-15T06:04:13;6.40;;;1.97;;
946;SDS011;460;48.734;9.152;2024-02-15T06:06:41;3.00;;;2.20;;
946;SDS011;460;48.734;9.152;2024-02-15T06:09:08;2.03;;;1.80;;
946;SDS011;460;48.734;9.152;2024-02-15T06:11:37;3.10;;;2.10;;
946;SDS011;460;48.734;9.152;2024-02-15T06:14:04;2.67;;;2.20;;
946;SDS011;460;48.734;9.152;2024-02-15T06:16:31;5.60;;;2.30;;
946;SDS011;460;48.734;9.152;2024-02-15T06:18:59;2.40;;;2.20;;
946;SDS011;460;48.734;9.152;2024-02-15T06:21:27;2.73;;;2.50;;
946;SDS011;460;48.734;9.152;2024-02-15T06:23:54;2.57;;;2.37;;
946;SDS011;460;48.734;9.152;2024-02-15T06:26:21;7.40;;;2.70;;
946;SDS011;460;48.734;9.152;2024-02-15T06:28:49;4.13;;;2.67;;
946;SDS011;460;48.734;9.152;2024-02-15T06:31:34;3.10;;;2.70;;
946;SDS011;460;48.734;9.152;2024-02-15T06:34:19;3.07;;;2.47;;
946;SDS011;460;48.734;9.152;2024-02-15T06:37:04;2.53;;;2.33;;
946;SDS011;460;48.734;9.152;2024-02-15T06:39:49;2.50;;;2.30;;
946;SDS011;460;48.734;9.152;2024-02-15T06:42:17;4.20;;;2.70;;
946;SDS011;460;48.734;9.152;2024-02-15T06:44:46;2.70;;;2.50;;
946;SDS011;460;48.734;9.152;2024-02-15T06:47:14;3.30;;;2.93;;
946;SDS011;460;48.734;9.152;2024-02-15T06:49:42;2.20;;;2.00;;
946;SDS011;460;48.734;9.152;2024-02-15T06:52:10;3.20;;;2.90;;
946;SDS011;460;48.734;9.152;2024-02-15T06:54:38;3.37;;;2.80;;
946;SDS011;460;48.734;9.152;2024-02-15T06:57:05;2.43;;;2.23;;
946;SDS011;460;48.734;9.152;2024-02-15T06:59:33;4.10;;;2.80;;
946;SDS011;460;48.734;9.152;2024-02-15T07:02:03;2.60;;;2.40;;
946;SDS011;460;48.734;9.152;2024-02-15T07:04:31;3.37;;;2.63;;
946;SDS011;460;48.734;9.152;2024-02-15T07:06:58;2.63;;;2.43;;
946;SDS011;460;48.734;9.152;2024-02-15T07:09:27;2.67;;;2.40;;
946;SDS011;460;48.734;9.152;2024-02-15T07:11:54;3.40;;;3.10;;
946;SDS011;460;48.734;9.152;2024-02-15T07:14:21;11.33;;;7.83;;
946;SDS011;460;48.734;9.152;2024-02-15T07:16:48;12.60;;;4.50;;
946;SDS011;460;48.734;9.152;2024-02-15T07:19:17;3.80;;;3.43;;
946;SDS011;460;48.734;9.152;2024-02-15T07:21:45;3.00;;;2.80;;
946;SDS011;460;48.734;9.152;2024-02-15T07:24:12;4.60;;;2.93;;
946;SDS011;460;48.734;9.152;2024-02-15T07:26:39;3.40;;;3.10;;
946;SDS011;460;48.734;9.152;2024-02-15T07:29:06;5.57;;;3.97;;
946;SDS011;460;48.734;9.152;2024-02-15T07:31:35;7.10;;;3.20;;
946;SDS011;460;48.734;9.152;2024-02-15T07:34:02;3.00;;;2.70;;
946;SDS011;460;48.734;9.152;2024-02-15T07:36:31;3.33;;;3.03;;
946;SDS011;460;48.734;9.152;2024-02-15T07:38:58;5.50;;;2.93;;
946;SDS011;460;48.734;9.152;2024-02-15T07:41:25;4.73;;;3.07;;
946;SDS011;460;48.734;9.152;2024-02-15T07:43:53;2.97;;;2.67;;
946;SDS011;460;48.734;9.152;2024-02-15T07:46:21;3.07;;;2.77;;
946;SDS011;460;48.734;9.152;2024-02-15T07:48:49;3.10;;;2.80;;
946;SDS011;460;48.734;9.152;2024-02-15T07:51:17;2.60;;;2.40;;
946;SDS011;460;48.734;9.152;2024-02-15T07:53:46;4.10;;;2.80;;
946;SDS011;460;48.734;9.152;2024-02-15T07:56:14;3.83;;;2.60;;
946;SDS011;460;48.734;9.152;2024-02-15T07:58:42;3.07;;;2.33;;
946;SDS011;460;48.734;9.152;2024-02-15T08:01:11;2.23;;;2.13;;
946;SDS011;460;48.734;9.152;2024-02-15T08:03:38;2.50;;;2.27;;
946;SDS011;460;48.734;9.152;2024-02-15T08:06:09;4.97;;;3.00;;
946;SDS011;460;48.734;9.152;2024-02-15T08:08:37;3.17;;;2.80;;
946;SDS011;460;48.734;9.152;2024-02-15T08:11:07;3.30;;;2.60;;
946;SDS011;460;48.734;9.152;2024-02-15T08:13:39;3.57;;;2.67;;
946;SDS011;460;48.734;9.152;2024-02-15T08:16:07;3.60;;;2.63;;
946;SDS011;460;48.734;9.152;2024-02-15T08:18:34;2.93;;;2.50;;
946;SDS011;460;48.734;9.152;2024-02-15T08:21:01;6.93;;;3.20;;
946;SDS011;460;48.734;9.152;2024-02-15T08:23:29;2.70;;;2.50;;
946;SDS011;460;48.734;9.152;2024-02-15T08:25:57;4.00;;;2.53;;
946;SDS011;460;48.734;9.152;2024-02-15T08:28:25;2.30;;;1.90;;
946;SDS011;460;48.734;9.152;2024-02-15T08:30:53;2.80;;;2.33;;
946;SDS011;460;48.734;9.152;2024-02-15T08:33:20;3.03;;;2.20;;
946;SDS011;460;48.734;9.152;2024-02-15T08:35:48;3.67;;;2.10;;
946;SDS011;460;48.734;9.152;2024-02-15T08:38:16;2.27;;;2.03;;
946;SDS011;460;48.734;9.152;2024-02-15T08:40:43;2.03;;;1.93;;
946;SDS011;460;48.734;9.152;2024-02-15T08:43:11;2.70;;;1.90;;
946;SDS011;460;48.734;9.152;2024-02-15T08:45:40;2.63;;;2.13;;
946;SDS011;460;48.734;9.152;2024-02-15T08:48:07;2.60;;;2.07;;
946;SDS011;460;48.734;9.152;2024-02-15T08:50:34;3.73;;;1.80;;
946;SDS011;460;48.734;9.152;2024-02-15T08:53:01;2.77;;;2.43;;
946;SDS011;460;48.734;9.152;2024-02-15T08:55:31;3.30;;;2.30;;
946;SDS011;460;48.734;9.152;2024-02-15T08:58:01;10.13;;;4.00;;
946;SDS011;460;48.734;9.152;2024-02-15T09:00:29;6.27;;;4.80;;
946;SDS011;460;48.734;9.152;2024-02-15T09:02:57;3.97;;;3.63;;
946;SDS011;460;48.734;9.152;2024-02-15T09:05:24;4.50;;;3.93;;
946;SDS011;460;48.734;9.152;2024-02-15T09:07:51;2.90;;;2.70;;
946;SDS011;460;48.734;9.152;2024-02-15T09:10:18;4.23;;;3.10;;
946;SDS011;460;48.734;9.152;2024-02-15T09:12:47;3.40;;;2.47;;
946;SDS011;460;48.734;9.152;2024-02-15T09:15:14;2.73;;;2.13;;
946;SDS011;460;48.734;9.152;2024-02-15T09:17:42;7.80;;;2.80;;
946;SDS011;460;48.734;9.152;2024-02-15T09:20:12;3.53;;;2.90;;
946;SDS011;460;48.734;9.152;2024-02-15T09:22:41;2.77;;;2.57;;
946;SDS011;460;48.734;9.152;2024-02-15T09:25:08;5.00;;;3.43;;
946;SDS011;460;48.734;9.152;2024-02-15T09:27:35;9.83;;;3.20;;
946;SDS011;460;48.734;9.152;2024-02-15T09:30:03;4.97;;;3.10;;
946;SDS011;460;48.734;9.152;2024-02-15T09:32:33;4.07;;;2.80;;
946;SDS011;460;48.734;9.152;2024-02-15T09:35:01;6.60;;;3.37;;
946;SDS011;460;48.734;9.152;2024-02-15T09:37:29;3.40;;;2.47;;
946;SDS011;460;48.734;9.152;2024-02-15T09:39:58;3.83;;;3.17;;
946;SDS011;460;48.734;9.152;2024-02-15T09:42:30;3.20;;;3.00;;
946;SDS011;460;48.734;9.152;2024-02-15T09:44:59;6.80;;;3.67;;
946;SDS011;460;48.734;9.152;2024-02-15T09:47:26;5.73;;;3.17;;
946;SDS011;460;48.734;9.152;2024-02-15T09:49:59;5.87;;;2.77;;
946;SDS011;460;48.734;9.152;2024-02-15T09:52:29;3.20;;;2.60;;
946;SDS011;460;48.734;9.152;2024-02-15T09:55:00;3.07;;;2.77;;
946;SDS011;460;48.734;9.152;2024-02-15T09:57:29;4.27;;;2.47;;
946;SDS011;460;48.734;9.152;2024-02-15T09:59:57;3.10;;;2.23;;
946;SDS011;460;48.734;9.152;2024-02-15T10:02:24;3.13;;;2.60;;
946;SDS011;460;48.734;9.152;2024-02-15T10:04:52;2.50;;;2.30;;
946;SDS011;460;48.734;9.152;2024-02-15T10:07:21;2.43;;;2.23;;
946;SDS011;460;48.734;9.152;2024-02-15T10:09:49;2.23;;;2.03;;
946;SDS011;460;48.734;9.152;2024-02-15T10:12:17;2.37;;;2.20;;
946;SDS011;460;48.734;9.152;2024-02-15T10:14:47;2.53;;;2.30;;
946;SDS011;460;48.734;9.152;2024-02-15T10:17:17;2.27;;;2.07;;
946;SDS011;460;48.734;9.152;2024-02-15T10:19:44;3.10;;;2.37;;
946;SDS011;460;48.734;9.152;2024-02-15T10:22:28;6.10;;;1.97;;
946;SDS011;460;48.734;9.152;2024-02-15T10:25:00;2.60;;;1.93;;
946;SDS011;460;48.734;9.152;2024-02-15T10:27:37;1.80;;;1.70;;
946;SDS011;460;48.734;9.152;2024-02-15T10:30:13;1.33;;;1.23;;
946;SDS011;460;48.734;9.152;2024-02-15T10:32:41;1.43;;;1.30;;
946;SDS011;460;48.734;9.152;2024-02-15T10:35:08;1.90;;;1.70;;
946;SDS011;460;48.734;9.152;2024-02-15T10:37:40;2.77;;;1.30;;
946;SDS011;460;48.734;9.152;2024-02-15T10:40:09;1.83;;;1.33;;
946;SDS011;460;48.734;9.152;2024-02-15T10:42:38;1.70;;;1.00;;
946;SDS011;460;48.734;9.152;2024-02-15T10:45:08;1.40;;;1.30;;
946;SDS011;460;48.734;9.152;2024-02-15T10:47:37;1.90;;;1.63;;
946;SDS011;460;48.734;9.152;2024-02-15T10:50:05;1.20;;;1.10;;
946;SDS011;460;48.734;9.152;2024-02-15T10:52:33;1.53;;;1.23;;
946;SDS011;460;48.734;9.152;2024-02-15T10:55:12;2.77;;;1.73;;
946;SDS011;460;48.734;9.152;2024-02-15T10:57:44;1.20;;;1.10;;
946;SDS011;460;48.734;9.152;2024-02-15T11:00:15;2.10;;;2.00;;
946;SDS011;460;48.734;9.152;2024-02-15T11:02:49;1.53;;;1.43;;
946;SDS011;460;48.734;9.152;2024-02-15T11:05:23;4.30;;;4.00;;
946;SDS011;460;48.734;9.152;2024-02-15T11:07:50;1.53;;;1.23;;
946;SDS011;460;48.734;9.152;2024-02-15T11:10:20;4.10;;;2.10;;
946;SDS011;460;48.734;9.152;2024-02-15T11:12:47;4.97;;;1.30;;
946;SDS011;460;48.734;9.152;2024-02-15T11:18:13;1.80;;;1.60;;
946;SDS011;460;48.734;9.152;2024-02-15T11:21:10;2.13;;;1.70;;
946;SDS011;460;48.734;9.152;2024-02-15T11:23:37;2.23;;;1.50;;
946;SDS011;460;48.734;9.152;2024-02-15T11:26:09;2.97;;;1.57;;
946;SDS011;460;48.734;9.152;2024-02-15T11:28:56;1.73;;;1.30;;
946;SDS011;460;48.734;9.152;2024-02-15T11:40:16;3.07;;;1.70;;
946;SDS011;460;48.734;9.152;2024-02-15T11:43:02;0.93;;;0.93;;
946;SDS011;460;48.734;9.152;2024-02-15T11:45:29;2.10;;;1.23;;
946;SDS011;460;48.734;9.152;2024-02-15T11:47:58;2.63;;;1.50;;
946;SDS011;460;48.734;9.152;2024-02-15T11:50:27;1.50;;;1.40;;
946;SDS011;460;48.734;9.152;2024-02-15T11:53:02;1.60;;;1.50;;
946;SDS011;460;48.734;9.152;2024-02-15T11:55:34;4.27;;;1.97;;
946;SDS011;460;48.734;9.152;2024-02-15T11:58:03;5.30;;;1.40;;
946;SDS011;460;48.734;9.152;2024-02-15T12:00:42;2.40;;;1.40;;
946;SDS011;460;48.734;9.152;2024-02-15T12:03:41;1.33;;;1.17;;
946;SDS011;460;48.734;9.152;2024-02-15T12:06:26;3.80;;;1.10;;
946;SDS011;460;48.734;9.152;2024-02-15T12:09:11;2.30;;;1.13;;
946;SDS011;460;48.734;9.152;2024-02-15T12:11:57;1.33;;;1.23;;
946;SDS011;460;48.734;9.152;2024-02-15T12:14:43;0.87;;;0.87;;
946;SDS011;460;48.734;9.152;2024-02-15T12:17:27;3.00;;;1.00;;
946;SDS011;460;48.734;9.152;2024-02-15T12:20:12;0.97;;;0.90;;
946;SDS011;460;48.734;9.152;2024-02-15T12:22:40;1.97;;;0.80;;
946;SDS011;460;48.734;9.152;2024-02-15T12:25:12;2.67;;;2.47;;
946;SDS011;460;48.734;9.152;2024-02-15T12:27:41;1.90;;;1.00;;
946;SDS011;460;48.734;9.152;2024-02-15T12:30:13;1.20;;;0.80;;
946;SDS011;460;48.734;9.152;2024-02-15T12:32:45;7.00;;;1.20;;
946;SDS011;460;48.734;9.152;2024-02-15T12:35:13;1.13;;;0.90;;
946;SDS011;460;48.734;9.152;2024-02-15T12:37:42;2.20;;;1.27;;
946;SDS011;460;48.734;9.152;2024-02-15T12:40:12;1.40;;;0.83;;
946;SDS011;460;48.734;9.152;2024-02-15T12:42:42;1.43;;;0.90;;
946;SDS011;460;48.734;9.152;2024-02-15T12:45:16;2.30;;;1.20;;
946;SDS011;460;48.734;9.152;2024-02-15T12:47:45;2.20;;;1.20;;
946;SDS011;460;48.734;9.152;2024-02-15T12:50:15;2.27;;;0.70;;
946;SDS011;460;48.734;9.152;2024-02-15T12:52:42;1.70;;;0.97;;
946;SDS011;460;48.734;9.152;2024-02-15T12:55:13;1.30;;;1.20;;
946;SDS011;460;48.734;9.152;2024-02-15T12:57:41;1.10;;;0.77;;
946;SDS011;460;48.734;9.152;2024-02-15T13:00:11;0.70;;;0.70;;
946;SDS011;460;48.734;9.152;2024-02-15T13:02:44;2.23;;;1.07;;
946;SDS011;460;48.734;9.152;2024-02-15T13:05:14;1.50;;;0.77;;
946;SDS011;460;48.734;9.152;2024-02-15T13:07:41;1.20;;;0.87;;
946;SDS011;460;48.734;9.152;2024-02-15T13:10:08;1.10;;;1.00;;
946;SDS011;460;48.734;9.152;2024-02-15T13:12:35;0.80;;;0.70;;
946;SDS011;460;48.734;9.152;2024-02-15T13:15:03;2.70;;;1.30;;
946;SDS011;460;48.734;9.152;2024-02-15T13:17:31;2.70;;;1.10;;
946;SDS011;460;48.734;9.152;2024-02-15T13:20:01;1.90;;;1.33;;
946;SDS011;460;48.734;9.152;2024-02-15T13:22:30;1.90;;;1.07;;
946;SDS011;460;48.734;9.152;2024-02-15T13:24:57;1.40;;;1.07;;
946;SDS011;460;48.734;9.152;2024-02-15T13:27:24;0.80;;;0.80;;
946;SDS011;460;48.734;9.152;2024-02-15T13:29:51;2.40;;;1.10;;
946;SDS011;460;48.734;9.152;2024-02-15T13:32:18;2.47;;;1.30;;
946;SDS011;460;48.734;9.152;2024-02-15T13:34:46;1.90;;;1.17;;
946;SDS011;460;48.734;9.152;2024-02-15T13:37:18;3.30;;;1.93;;
946;SDS011;460;48.734;9.152;2024-02-15T13:39:48;1.60;;;1.10;;
946;SDS011;460;48.734;9.152;2024-02-15T13:42:16;2.50;;;0.90;;
946;SDS011;460;48.734;9.152;2024-02-15T13:44:43;2.43;;;1.27;;
946;SDS011;460;48.734;9.152;2024-02-15T13:47:11;1.20;;;0.97;;
946;SDS011;460;48.734;9.152;2024-02-15T13:49:37;2.90;;;1.30;;
946;SDS011;460;48.734;9.152;2024-02-15T13:52:04;2.50;;;1.17;;
946;SDS011;460;48.734;9.152;2024-02-15T13:54:33;1.80;;;1.27;;
946;SDS011;460;48.734;9.152;2024-02-15T13:57:00;1.30;;;1.03;;
946;SDS011;460;48.734;9.152;2024-02-15T13:59:27;1.80;;;1.10;;
946;SDS011;460;48.734;9.152;2024-02-15T14:01:55;1.67;;;1.30;;
946;SDS011;460;48.734;9.152;2024-02-15T14:04:21;1.77;;;1.30;;
946;SDS011;460;48.734;9.152;2024-02-15T14:06:48;1.80;;;1.10;;
946;SDS011;460;48.734;9.152;2024-02-15T14:09:15;0.90;;;0.90;;
946;SDS011;460;48.734;9.152;2024-02-15T14:11:44;1.87;;;1.50;;
946;SDS011;460;48.734;9.152;2024-02-15T14:14:10;3.60;;;1.20;;
946;SDS011;460;48.734;9.152;2024-02-15T14:16:37;2.23;;;1.37;;
946;SDS011;460;48.734;9.152;2024-02-15T14:19:05;4.40;;;1.87;;
946;SDS011;460;48.734;9.152;2024-02-15T14:21:32;2.97;;;1.40;;
946;SDS011;460;48.734;9.152;2024-02-15T14:24:04;1.60;;;1.37;;
946;SDS011;460;48.734;9.152;2024-02-15T14:26:33;1.50;;;1.40;;
946;SDS011;460;48.734;9.152;2024-02-15T14:29:02;1.27;;;1.13;;
946;SDS011;460;48.734;9.152;2024-02-15T14:31:30;2.37;;;2.13;;
946;SDS011;460;48.734;9.152;2024-02-15T14:34:15;3.10;;;1.33;;
946;SDS011;460;48.734;9.152;2024-02-15T14:36:45;3.37;;;1.87;;
946;SDS011;460;48.734;9.152;2024-02-15T14:39:12;3.90;;;1.40;;
946;SDS011;460;48.734;9.152;2024-02-15T14:41:39;5.07;;;1.50;;
946;SDS011;460;48.734;9.152;2024-02-15T14:44:09;5.20;;;1.60;;
946;SDS011;460;48.734;9.152;2024-02-15T14:46:37;2.30;;;1.50;;
946;SDS011;460;48.734;9.152;2024-02-15T14:49:05;1.80;;;1.20;;
946;SDS011;460;48.734;9.152;2024-02-15T14:51:33;2.73;;;1.80;;
946;SDS011;460;48.734;9.152;2024-02-15T14:54:02;1.33;;;1.17;;
946;SDS011;460;48.734;9.152;2024-02-15T14:56:29;3.43;;;1.57;;
946;SDS011;460;48.734;9.152;2024-02-15T14:58:58;4.47;;;1.90;;
946;SDS011;460;48.734;9.152;2024-02-15T15:01:26;2.63;;;1.53;;
946;SDS011;460;48.734;9.152;2024-02-15T15:03:54;3.40;;;2.20;;
946;SDS011;460;48.734;9.152;2024-02-15T15:06:23;4.70;;;1.90;;
946;SDS011;460;48.734;9.152;2024-02-15T15:09:10;3.93;;;1.90;;
946;SDS011;460;48.734;9.152;2024-02-15T15:11:55;3.80;;;1.80;;
946;SDS011;460;48.734;9.152;2024-02-15T15:14:39;1.87;;;1.70;;
946;SDS011;460;48.734;9.152;2024-02-15T15:17:08;1.97;;;1.77;;
946;SDS011;460;48.734;9.152;2024-02-15T15:19:37;4.40;;;1.50;;
946;SDS011;460;48.734;9.152;2024-02-15T15:22:04;1.63;;;1.30;;
946;SDS011;460;48.734;9.152;2024-02-15T15:24:32;1.40;;;1.30;;
946;SDS011;460;48.734;9.152;2024-02-15T15:26:59;1.90;;;1.47;;
946;SDS011;460;48.734;9.152;2024-02-15T15:29:26;3.13;;;1.50;;
946;SDS011;460;48.734;9.152;2024-02-15T15:31:53;3.53;;;1.80;;
946;SDS011;460;48.734;9.152;2024-02-15T15:34:22;2.67;;;1.83;;
946;SDS011;460;48.734;9.152;2024-02-15T15:36:49;4.37;;;1.87;;
946;SDS011;460;48.734;9.152;2024-02-15T15:39:19;5.83;;;1.70;;
946;SDS011;460;48.734;9.152;2024-02-15T15:41:49;3.20;;;1.80;;
946;SDS011;460;48.734;9.152;2024-02-15T15:44:18;1.53;;;1.30;;
946;SDS011;460;48.734;9.152;2024-02-15T15:46:47;2.37;;;1.20;;
946;SDS011;460;48.734;9.152;2024-02-15T15:49:15;2.97;;;1.30;;
946;SDS011;460;48.734;9.152;2024-02-15T15:51:43;1.60;;;1.50;;
946;SDS011;460;48.734;9.152;2024-02-15T15:54:10;4.00;;;1.63;;
946;SDS011;460;48.734;9.152;2024-02-15T15:56:36;3.03;;;1.70;;
946;SDS011;460;48.734;9.152;2024-02-15T15:59:03;8.93;;;1.70;;
946;SDS011;460;48.734;9.152;2024-02-15T16:01:31;3.23;;;1.30;;
946;SDS011;460;48.734;9.152;2024-02-15T16:03:57;2.03;;;1.83;;
946;SDS011;460;48.734;9.152;2024-02-15T16:06:24;1.60;;;1.17;;
946;SDS011;460;48.734;9.152;2024-02-15T16:08:53;2.73;;;2.53;;